Time;durP1;ratioP1;P1;durP2;ratioP2;P2;SDS_P1;SDS_P2;PMS_P1;PMS_P2;Temp;Humidity;BMP_temperature;BMP_pressure;BME280_temperature;BME280_humidity;BME280_pressure;Samples;Min_cycle;Max_cycle;Signal;HPM_P1;HPM_P2
2020/10/08 00:02:00;;;;;;;0.8;0.6;;;;;;;;;;;;;
2020/10/08 00:04:26;;;;;;;1.4;0.6;;;;;;;;;;;;;
2020/10/08 00:06:52;;;;;;;1.7;0.6;;;;;;;;;;;;;
2020/10/08 00:09:18;;;;;;;11.1;0.5;;;;;;;;;;;;;
2020/10/08 00:11:43;;;;;;;0.3;0.3;;;;;;;;;;;;;
2020/10/08 00:14:09;;;;;;;0.3;0.3;;;;;;;;;;;;;
2020/10/08 00:16:34;;;;;;;0.2;0.2;;;;;;;;;;;;;
2020/10/08 00:18:59;;;;;;;0.7;0.4;;;;;;;;;;;;;
2020/10/08 00:21:24;;;;;;;1.7;0.5;;;;;;;;;;;;;
2020/10/08 00:23:50;;;;;;;0.2;0.2;;;;;;;;;;;;;
2020/10/08 00:26:16;;;;;;;1;0.3;;;;;;;;;;;;;
2020/10/08 00:28:41;;;;;;;0.1;0.1;;;;;;;;;;;;;
2020/10/08 00:31:06;;;;;;;0.2;0.2;;;;;;;;;;;;;
2020/10/08 00:33:31;;;;;;;0.5;0.2;;;;;;;;;;;;;
2020/10/08 00:35:58;;;;;;;0.3;0.2;;;;;;;;;;;;;
2020/10/08 00:38:23;;;;;;;0.4;0.1;;;;;;;;;;;;;
2020/10/08 00:40:48;;;;;;;0.4;0.2;;;;;;;;;;;;;
2020/10/08 00:43:13;;;;;;;0.6;0.2;;;;;;;;;;;;;
2020/10/08 00:45:38;;;;;;;0.1;0.1;;;;;;;;;;;;;
2020/10/08 00:48:03;;;;;;;0.1;0.1;;;;;;;;;;;;;
2020/10/08 00:50:29;;;;;;;1.4;0.4;;;;;;;;;;;;;
2020/10/08 00:52:55;;;;;;;0.2;0.2;;;;;;;;;;;;;
2020/10/08 00:55:20;;;;;;;0.4;0.3;;;;;;;;;;;;;
2020/10/08 00:57:46;;;;;;;0.3;0.2;;;;;;;;;;;;;
2020/10/08 01:00:11;;;;;;;4.5;0.5;;;;;;;;;;;;;
2020/10/08 01:02:37;;;;;;;0.1;0.1;;;;;;;;;;;;;
2020/10/08 01:05:03;;;;;;;0.2;0.2;;;;;;;;;;;;;
2020/10/08 01:07:28;;;;;;;0.1;0.1;;;;;;;;;;;;;
2020/10/08 01:09:53;;;;;;;0.7;0.2;;;;;;;;;;;;;
2020/10/08 01:12:19;;;;;;;0.7;0.3;;;;;;;;;;;;;
2020/10/08 01:14:44;;;;;;;0.7;0.3;;;;;;;;;;;;;
2020/10/08 01:17:11;;;;;;;0.4;0.2;;;;;;;;;;;;;
2020/10/08 01:19:36;;;;;;;0.2;0.2;;;;;;;;;;;;;
2020/10/08 01:22:02;;;;;;;0.3;0.3;;;;;;;;;;;;;
2020/10/08 01:24:27;;;;;;;0.8;0.1;;;;;;;;;;;;;
2020/10/08 01:26:53;;;;;;;0.1;0.1;;;;;;;;;;;;;
2020/10/08 01:29:18;;;;;;;0.2;0.2;;;;;;;;;;;;;
2020/10/08 01:31:43;;;;;;;0.1;0.1;;;;;;;;;;;;;
2020/10/08 01:34:08;;;;;;;0.1;0.1;;;;;;;;;;;;;
2020/10/08 01:36:33;;;;;;;0;0;;;;;;;;;;;;;
2020/10/08 01:38:58;;;;;;;0.3;0.1;;;;;;;;;;;;;
2020/10/08 01:41:24;;;;;;;0.2;0.2;;;;;;;;;;;;;
2020/10/08 01:43:49;;;;;;;0.7;0.1;;;;;;;;;;;;;
2020/10/08 01:46:15;;;;;;;0;0;;;;;;;;;;;;;
2020/10/08 01:48:40;;;;;;;0.4;0.2;;;;;;;;;;;;;
2020/10/08 01:51:06;;;;;;;0.1;0.1;;;;;;;;;;;;;
2020/10/08 01:53:31;;;;;;;0.3;0.2;;;;;;;;;;;;;
2020/10/08 01:55:56;;;;;;;0.9;0.3;;;;;;;;;;;;;
2020/10/08 01:58:22;;;;;;;0.2;0.2;;;;;;;;;;;;;
2020/10/08 02:00:49;;;;;;;0.8;0.4;;;;;;;;;;;;;
2020/10/08 02:03:12;;;;;;;0.3;0.3;;;;;;;;;;;;;
2020/10/08 02:05:37;;;;;;;0.1;0.1;;;;;;;;;;;;;
2020/10/08 02:08:03;;;;;;;0.5;0.2;;;;;;;;;;;;;
2020/10/08 02:10:31;;;;;;;0.3;0.2;;;;;;;;;;;;;
2020/10/08 02:12:55;;;;;;;0.1;0.1;;;;;;;;;;;;;
2020/10/08 02:15:20;;;;;;;0.4;0.2;;;;;;;;;;;;;
2020/10/08 02:17:47;;;;;;;0.1;0.1;;;;;;;;;;;;;
2020/10/08 02:20:13;;;;;;;0.3;0.2;;;;;;;;;;;;;
2020/10/08 02:22:38;;;;;;;0.3;0.1;;;;;;;;;;;;;
2020/10/08 02:25:03;;;;;;;0.1;0.1;;;;;;;;;;;;;
2020/10/08 02:27:29;;;;;;;0.1;0.1;;;;;;;;;;;;;
2020/10/08 02:29:54;;;;;;;0.6;0.3;;;;;;;;;;;;;
2020/10/08 02:32:20;;;;;;;0.1;0.1;;;;;;;;;;;;;
2020/10/08 02:34:46;;;;;;;5.5;0.4;;;;;;;;;;;;;
2020/10/08 02:37:11;;;;;;;0.2;0.2;;;;;;;;;;;;;
2020/10/08 02:39:37;;;;;;;0.4;0.3;;;;;;;;;;;;;
2020/10/08 02:42:03;;;;;;;1.2;0.9;;;;;;;;;;;;;
2020/10/08 02:44:28;;;;;;;1.2;0.7;;;;;;;;;;;;;
2020/10/08 02:46:54;;;;;;;1;0.5;;;;;;;;;;;;;
2020/10/08 02:49:19;;;;;;;2.7;1.8;;;;;;;;;;;;;
2020/10/08 02:51:44;;;;;;;1;0.9;;;;;;;;;;;;;
2020/10/08 02:54:09;;;;;;;1.5;0.8;;;;;;;;;;;;;
2020/10/08 02:56:35;;;;;;;0.6;0.6;;;;;;;;;;;;;
2020/10/08 02:59:00;;;;;;;0.5;0.5;;;;;;;;;;;;;
2020/10/08 03:01:25;;;;;;;0.4;0.4;;;;;;;;;;;;;
2020/10/08 03:03:50;;;;;;;0.9;0.5;;;;;;;;;;;;;
2020/10/08 03:06:16;;;;;;;0.4;0.3;;;;;;;;;;;;;
2020/10/08 03:08:42;;;;;;;0.3;0.3;;;;;;;;;;;;;
2020/10/08 03:11:07;;;;;;;0.8;0.3;;;;;;;;;;;;;
2020/10/08 03:13:33;;;;;;;0.5;0.3;;;;;;;;;;;;;
2020/10/08 03:15:58;;;;;;;0.2;0.2;;;;;;;;;;;;;
2020/10/08 03:18:24;;;;;;;0.8;0.4;;;;;;;;;;;;;
2020/10/08 03:20:49;;;;;;;0.4;0.4;;;;;;;;;;;;;
2020/10/08 03:23:15;;;;;;;0.3;0.3;;;;;;;;;;;;;
2020/10/08 03:25:40;;;;;;;0.7;0.3;;;;;;;;;;;;;
2020/10/08 03:28:05;;;;;;;0.3;0.3;;;;;;;;;;;;;
2020/10/08 03:30:30;;;;;;;0.5;0.5;;;;;;;;;;;;;
2020/10/08 03:32:56;;;;;;;0.4;0.3;;;;;;;;;;;;;
2020/10/08 03:35:21;;;;;;;0.6;0.2;;;;;;;;;;;;;
2020/10/08 03:37:47;;;;;;;0.3;0.3;;;;;;;;;;;;;
2020/10/08 03:40:12;;;;;;;0.5;0.5;;;;;;;;;;;;;
2020/10/08 03:42:37;;;;;;;0.6;0.4;;;;;;;;;;;;;
2020/10/08 03:45:03;;;;;;;0.7;0.6;;;;;;;;;;;;;
2020/10/08 03:47:28;;;;;;;1.1;0.7;;;;;;;;;;;;;
2020/10/08 03:49:54;;;;;;;0.6;0.4;;;;;;;;;;;;;
2020/10/08 03:52:19;;;;;;;0.5;0.4;;;;;;;;;;;;;
2020/10/08 03:54:45;;;;;;;0.3;0.3;;;;;;;;;;;;;
2020/10/08 03:57:10;;;;;;;0.5;0.5;;;;;;;;;;;;;
2020/10/08 03:59:35;;;;;;;0.8;0.5;;;;;;;;;;;;;
2020/10/08 04:02:30;;;;;;;0.8;0.4;;;;;;;9.28;87.40039;944.4661;;;;
2020/10/08 04:04:57;;;;;;;0.2;0.2;;;;;;;9.23;87.58105;944.5172;;;;
2020/10/08 04:07:22;;;;;;;0.5;0.4;;;;;;;8.91;88.86816;944.4609;;;;
2020/10/08 04:09:47;;;;;;;2.3;0.5;;;;;;;8.69;89.90527;944.3947;;;;
2020/10/08 04:12:12;;;;;;;0.7;0.4;;;;;;;8.52;91.00586;944.463;;;;
2020/10/08 04:14:38;;;;;;;0.5;0.3;;;;;;;8.52;90.69922;944.3495;;;;
2020/10/08 04:17:03;;;;;;;0.2;0.2;;;;;;;8.58;90.29199;944.4194;;;;
2020/10/08 04:19:28;;;;;;;0.5;0.4;;;;;;;8.53;90.57617;944.4512;;;;
2020/10/08 04:21:53;;;;;;;0.3;0.2;;;;;;;8.65;90.15723;944.4453;;;;
2020/10/08 04:24:18;;;;;;;0.4;0.2;;;;;;;8.53;90.54199;944.3845;;;;
2020/10/08 04:26:43;;;;;;;0.3;0.3;;;;;;;8.58;90.37012;944.3962;;;;
2020/10/08 04:29:10;;;;;;;0.7;0.3;;;;;;;8.7;89.74805;944.4188;;;;
2020/10/08 04:31:35;;;;;;;0.3;0.3;;;;;;;8.77;89.69336;944.4292;;;;
2020/10/08 04:34:00;;;;;;;0.8;0.4;;;;;;;8.79;89.41406;944.4744;;;;
2020/10/08 04:36:28;;;;;;;0.4;0.3;;;;;;;8.8;88.56348;944.4713;;;;
2020/10/08 04:38:53;;;;;;;1.1;0.4;;;;;;;8.81;88.6543;944.4922;;;;
2020/10/08 04:41:19;;;;;;;1.5;0.6;;;;;;;8.81;88.49902;944.4824;;;;
2020/10/08 04:43:44;;;;;;;0.3;0.3;;;;;;;8.81;88.49707;944.4387;;;;
2020/10/08 04:46:11;;;;;;;1.4;0.4;;;;;;;8.8;88.47266;944.4476;;;;
2020/10/08 04:48:36;;;;;;;0.3;0.3;;;;;;;8.77;88.99023;944.4342;;;;
2020/10/08 04:51:01;;;;;;;0.5;0.2;;;;;;;8.9;88.46973;944.5178;;;;
2020/10/08 04:53:26;;;;;;;0.2;0.2;;;;;;;8.78;89.11719;944.4774;;;;
2020/10/08 04:55:52;;;;;;;0.4;0.4;;;;;;;8.8;89.16602;944.527;;;;
2020/10/08 04:58:17;;;;;;;0.8;0.5;;;;;;;8.86;88.4834;944.5352;;;;
2020/10/08 05:00:45;;;;;;;0.3;0.3;;;;;;;8.87;88.14648;944.4941;;;;
2020/10/08 05:03:10;;;;;;;0.7;0.5;;;;;;;8.9;87.86719;944.4252;;;;
2020/10/08 05:05:35;;;;;;;0.8;0.4;;;;;;;8.84;87.82031;944.4704;;;;
2020/10/08 05:08:00;;;;;;;0.6;0.4;;;;;;;8.75;88.0752;944.4519;;;;
2020/10/08 05:10:26;;;;;;;0.6;0.5;;;;;;;8.7;88.03125;944.4911;;;;
2020/10/08 05:12:51;;;;;;;1.3;0.8;;;;;;;8.63;88.33496;944.4781;;;;
2020/10/08 05:15:20;;;;;;;0.6;0.6;;;;;;;8.6;88.60254;944.4182;;;;
2020/10/08 05:17:45;;;;;;;1.2;0.8;;;;;;;8.61;88.49219;944.4031;;;;
2020/10/08 05:20:13;;;;;;;4.5;2;;;;;;;8.56;88.34473;944.4109;;;;
2020/10/08 05:22:38;;;;;;;3.2;2;;;;;;;8.43;89.30566;944.4645;;;;
2020/10/08 05:25:03;;;;;;;2.2;1;;;;;;;8.4;89.02734;944.5245;;;;
2020/10/08 05:27:28;;;;;;;3.4;1.3;;;;;;;8.43;88.55371;944.4548;;;;
2020/10/08 05:29:54;;;;;;;1.3;1.1;;;;;;;8.33;88.32129;944.4961;;;;
2020/10/08 05:32:19;;;;;;;4.1;1.8;;;;;;;8.29;88.49316;944.5585;;;;
2020/10/08 05:34:44;;;;;;;2.5;1.5;;;;;;;8.1;89.94043;944.536;;;;
2020/10/08 05:37:09;;;;;;;3.7;1.9;;;;;;;8.21;89.79395;944.5522;;;;
2020/10/08 05:39:34;;;;;;;2;1.2;;;;;;;8.23;89.38867;944.5353;;;;
2020/10/08 05:42:12;;;;;;;0.8;0.5;;;;;;;8.13;89.64063;944.525;;;;
2020/10/08 05:44:25;;;;;;;1.7;0.6;;;;;;;8.11;89.78516;944.53;;;;
2020/10/08 05:46:51;;;;;;;0.4;0.4;;;;;;;8.09;89.93848;944.5945;;;;
2020/10/08 05:49:16;;;;;;;0.5;0.5;;;;;;;8.14;89.41602;944.5524;;;;
2020/10/08 05:51:44;;;;;;;1;0.4;;;;;;;8.2;89.14453;944.6375;;;;
2020/10/08 05:54:09;;;;;;;0.9;0.6;;;;;;;8.14;88.63184;944.6277;;;;
2020/10/08 05:56:36;;;;;;;0.8;0.6;;;;;;;8.09;88.9502;944.6517;;;;
2020/10/08 05:59:01;;;;;;;0.9;0.7;;;;;;;8.01;89.46875;944.5478;;;;
2020/10/08 06:01:26;;;;;;;0.9;0.8;;;;;;;7.79;90.76074;944.7023;;;;
2020/10/08 06:03:52;;;;;;;0.5;0.5;;;;;;;7.93;91.2002;944.6808;;;;
2020/10/08 06:06:17;;;;;;;0.9;0.5;;;;;;;8.21;90.52148;944.6705;;;;
2020/10/08 06:08:42;;;;;;;4.4;1;;;;;;;8.35;89.6748;944.7104;;;;
2020/10/08 06:11:07;;;;;;;1.1;0.8;;;;;;;8.44;88.97949;944.7123;;;;
2020/10/08 06:13:32;;;;;;;1;0.8;;;;;;;8.46;89.04004;944.7305;;;;
2020/10/08 06:15:58;;;;;;;2;1.4;;;;;;;8.41;89.03809;944.7492;;;;
2020/10/08 06:18:24;;;;;;;2.6;1.3;;;;;;;8.49;88.83008;944.7408;;;;
2020/10/08 06:20:48;;;;;;;8.6;1.1;;;;;;;8.49;88.56836;944.7527;;;;
2020/10/08 06:23:15;;;;;;;1.2;0.8;;;;;;;8.44;88.7168;944.7313;;;;
2020/10/08 06:25:40;;;;;;;10.2;4.4;;;;;;;8.39;89.15039;944.6892;;;;
2020/10/08 06:28:06;;;;;;;61.1;33.2;;;;;;;8.43;89.45313;944.8058;;;;
2020/10/08 06:30:32;;;;;;;4.1;2.7;;;;;;;8.39;89.42285;944.8187;;;;
2020/10/08 06:32:59;;;;;;;1.1;0.9;;;;;;;8.29;89.85449;944.7924;;;;
2020/10/08 06:35:25;;;;;;;1.8;1;;;;;;;7.98;91.50488;944.7986;;;;
2020/10/08 06:37:50;;;;;;;1.8;1.2;;;;;;;8.05;91.86035;944.8123;;;;
2020/10/08 06:40:17;;;;;;;2.6;1.1;;;;;;;7.96;92.4541;944.8789;;;;
2020/10/08 06:42:42;;;;;;;0.8;0.8;;;;;;;8.07;91.91016;944.8572;;;;
2020/10/08 06:45:08;;;;;;;1.3;0.8;;;;;;;8.18;91.87598;944.9468;;;;
2020/10/08 06:47:33;;;;;;;0.8;0.5;;;;;;;8.3;91.6875;944.8784;;;;
2020/10/08 06:49:58;;;;;;;2.9;1.1;;;;;;;8.34;90.87695;944.8586;;;;
2020/10/08 06:52:24;;;;;;;3.3;1.8;;;;;;;8.44;90.19336;944.8798;;;;
2020/10/08 06:54:50;;;;;;;4.6;2.2;;;;;;;8.56;90.90234;944.9142;;;;
2020/10/08 06:57:17;;;;;;;5.3;1.7;;;;;;;8.73;90.32227;944.9088;;;;
2020/10/08 06:59:40;;;;;;;1.8;1.3;;;;;;;8.98;89.56738;944.8917;;;;
2020/10/08 07:02:05;;;;;;;1.7;1.1;;;;;;;9.14;89.13281;944.8898;;;;
2020/10/08 07:04:30;;;;;;;3.6;0.9;;;;;;;9.17;87.92285;944.8406;;;;
2020/10/08 07:06:55;;;;;;;1.7;0.8;;;;;;;9.2;87.29102;944.8864;;;;
2020/10/08 07:09:20;;;;;;;1.1;0.7;;;;;;;9.07;87.0127;944.8998;;;;
2020/10/08 07:11:45;;;;;;;0.5;0.5;;;;;;;9.38;86.91895;944.8953;;;;
2020/10/08 07:14:16;;;;;;;1.2;0.6;;;;;;;9.74;84.91602;944.8853;;;;
2020/10/08 07:16:41;;;;;;;0.4;0.4;;;;;;;10.02;84.50391;944.8293;;;;
2020/10/08 07:19:08;;;;;;;0.4;0.4;;;;;;;10.22;82.82129;944.8884;;;;
2020/10/08 07:21:33;;;;;;;0.9;0.4;;;;;;;10.63;82.08789;944.9252;;;;
2020/10/08 07:23:58;;;;;;;0.4;0.3;;;;;;;10.93;81.17383;944.877;;;;
2020/10/08 07:26:24;;;;;;;0.5;0.4;;;;;;;10.92;79.6748;944.8714;;;;
2020/10/08 07:28:49;;;;;;;0.1;0.1;;;;;;;10.76;79.38184;944.95;;;;
2020/10/08 07:31:19;;;;;;;0.2;0.2;;;;;;;10.73;79.36523;944.9797;;;;
2020/10/08 07:33:48;;;;;;;0.6;0.3;;;;;;;10.96;78.11523;944.9476;;;;
2020/10/08 07:36:13;;;;;;;0.3;0.3;;;;;;;11.34;77.69336;944.916;;;;
2020/10/08 07:38:39;;;;;;;0.3;0.2;;;;;;;11.23;75.05273;944.8878;;;;
2020/10/08 07:41:04;;;;;;;0.3;0.3;;;;;;;11.78;75.50391;944.8958;;;;
2020/10/08 07:43:32;;;;;;;0.4;0.2;;;;;;;12.66;73.3291;944.8369;;;;
2020/10/08 07:45:57;;;;;;;0.4;0.3;;;;;;;13.82;69.41699;944.7517;;;;
2020/10/08 07:48:22;;;;;;;0.4;0.3;;;;;;;14.21;64.82715;944.7859;;;;
2020/10/08 07:50:49;;;;;;;0.3;0.2;;;;;;;16.07;62.61719;944.7633;;;;
2020/10/08 07:53:14;;;;;;;0;0;;;;;;;15.94;58.64453;944.6498;;;;
2020/10/08 07:55:42;;;;;;;0.3;0.2;;;;;;;15.56;60.78906;944.718;;;;
2020/10/08 07:58:08;;;;;;;0.2;0.2;;;;;;;14.43;62.21094;944.7228;;;;
2020/10/08 08:00:34;;;;;;;0.2;0.1;;;;;;;14.07;64.83008;944.7073;;;;
2020/10/08 08:02:59;;;;;;;0.7;0.2;;;;;;;13.82;65.16016;944.6309;;;;
2020/10/08 08:05:27;;;;;;;2.7;0.6;;;;;;;13.93;66.66016;944.6277;;;;
2020/10/08 08:07:52;;;;;;;0.7;0.4;;;;;;;14.3;63.88477;944.6265;;;;
2020/10/08 08:10:20;;;;;;;1;0.4;;;;;;;14.38;64.4375;944.5499;;;;
2020/10/08 08:12:45;;;;;;;0.1;0.1;;;;;;;14.66;64.19141;944.5072;;;;
2020/10/08 08:15:19;;;;;;;0.2;0.2;;;;;;;14.46;63.60742;944.5405;;;;
2020/10/08 08:17:44;;;;;;;0.6;0.3;;;;;;;14.66;63.78809;944.5817;;;;
2020/10/08 08:20:09;;;;;;;4.7;0.6;;;;;;;14.35;64.66406;944.533;;;;
2020/10/08 08:22:37;;;;;;;1.8;1;;;;;;;14.26;65.20215;944.5084;;;;
2020/10/08 08:25:02;;;;;;;6.7;0.6;;;;;;;14.07;66.24609;944.5687;;;;
2020/10/08 08:27:28;;;;;;;1.9;0.6;;;;;;;14.1;65.17969;944.6035;;;;
2020/10/08 08:29:53;;;;;;;0.2;0.2;;;;;;;13.97;64.23828;944.6342;;;;
2020/10/08 08:32:24;;;;;;;2.5;0.5;;;;;;;13.67;66.34473;944.6511;;;;
2020/10/08 08:34:53;;;;;;;0.5;0.3;;;;;;;14.1;66.03125;944.6811;;;;
2020/10/08 08:37:18;;;;;;;0.6;0.3;;;;;;;14.13;65.24121;944.6332;;;;
2020/10/08 08:39:45;;;;;;;0.1;0.1;;;;;;;14.69;64.21777;944.6516;;;;
2020/10/08 08:42:14;;;;;;;0.4;0.3;;;;;;;15.09;63.70117;944.6245;;;;
2020/10/08 08:44:39;;;;;;;0.3;0.3;;;;;;;15.18;62.8584;944.6343;;;;
2020/10/08 08:47:06;;;;;;;3.3;0.5;;;;;;;15.19;64.00391;944.6255;;;;
2020/10/08 08:49:34;;;;;;;1.2;0.4;;;;;;;14.95;60.67969;944.6142;;;;
2020/10/08 08:52:02;;;;;;;1.7;0.4;;;;;;;14.61;63.05469;944.6125;;;;
2020/10/08 08:54:27;;;;;;;0.9;0.4;;;;;;;14.69;62.74414;944.6523;;;;
2020/10/08 08:56:52;;;;;;;1;0.5;;;;;;;14.7;63.50586;944.5915;;;;
2020/10/08 08:59:20;;;;;;;2.6;0.6;;;;;;;14.87;63.41309;944.5988;;;;
2020/10/08 09:01:45;;;;;;;0.5;0.2;;;;;;;14.65;61.5498;944.5929;;;;
2020/10/08 09:04:10;;;;;;;1.1;0.5;;;;;;;14.71;62.51563;944.5186;;;;
2020/10/08 09:06:39;;;;;;;0.6;0.3;;;;;;;15.09;62.77832;944.5347;;;;
2020/10/08 09:09:13;;;;;;;2.2;0.5;;;;;;;14.88;62.37891;944.4817;;;;
2020/10/08 09:11:29;;;;;;;0.6;0.3;;;;;;;14.59;61.16113;944.4625;;;;
2020/10/08 09:13:54;;;;;;;0.2;0.2;;;;;;;14.35;63.47754;944.3879;;;;
2020/10/08 09:16:20;;;;;;;3.7;1.6;;;;;;;14.54;62.96289;944.4286;;;;
2020/10/08 09:18:45;;;;;;;2;0.9;;;;;;;14.5;63.15332;944.3547;;;;
2020/10/08 09:21:10;;;;;;;0.9;0.8;;;;;;;14.79;61.98438;944.3136;;;;
2020/10/08 09:23:35;;;;;;;0.4;0.4;;;;;;;15.3;61.46875;944.3251;;;;
2020/10/08 09:26:04;;;;;;;2.8;0.6;;;;;;;15.56;60.28125;944.4009;;;;
2020/10/08 09:28:26;;;;;;;0.4;0.4;;;;;;;15.3;57.76367;944.3475;;;;
2020/10/08 09:30:53;;;;;;;0.8;0.3;;;;;;;15.61;58.30078;944.3162;;;;
2020/10/08 09:33:18;;;;;;;0.5;0.3;;;;;;;15.77;59.66309;944.285;;;;
2020/10/08 09:35:46;;;;;;;8.2;0.7;;;;;;;15.57;59.85547;944.2404;;;;
2020/10/08 09:38:11;;;;;;;0.3;0.2;;;;;;;15.52;59.54785;944.2758;;;;
2020/10/08 09:40:37;;;;;;;0.9;0.7;;;;;;;15.09;60.32031;944.262;;;;
2020/10/08 09:43:01;;;;;;;3.8;0.8;;;;;;;15.5;63.84082;944.2283;;;;
2020/10/08 09:45:31;;;;;;;1.2;0.5;;;;;;;15.55;61.69922;944.1826;;;;
2020/10/08 09:47:56;;;;;;;1.7;0.5;;;;;;;15.17;61.53027;944.2011;;;;
2020/10/08 09:50:22;;;;;;;0.3;0.2;;;;;;;14.87;61.90332;944.1955;;;;
2020/10/08 09:52:47;;;;;;;0.6;0.4;;;;;;;14.88;62.44727;944.1305;;;;
2020/10/08 09:55:16;;;;;;;0.5;0.4;;;;;;;14.82;61.43457;944.0854;;;;
2020/10/08 09:57:41;;;;;;;1.1;0.3;;;;;;;14.69;62.58105;944.092;;;;
2020/10/08 10:00:06;;;;;;;0.2;0.2;;;;;;;14.78;63.44727;944.0064;;;;
2020/10/08 10:02:33;;;;;;;0.9;0.4;;;;;;;15.02;61.80957;944.0251;;;;
2020/10/08 10:04:58;;;;;;;0.3;0.3;;;;;;;15.22;60.7998;944.0201;;;;
2020/10/08 10:07:23;;;;;;;0.3;0.3;;;;;;;15.57;59.18359;944.0541;;;;
2020/10/08 10:09:49;;;;;;;0.4;0.1;;;;;;;15.93;58.59863;943.9864;;;;
2020/10/08 10:12:14;;;;;;;2.3;0.4;;;;;;;16.32;57.93262;943.9497;;;;
2020/10/08 10:14:40;;;;;;;0.3;0.2;;;;;;;16.72;60.05859;943.9216;;;;
2020/10/08 10:17:05;;;;;;;0.3;0.3;;;;;;;17.05;56.18652;943.9146;;;;
2020/10/08 10:19:32;;;;;;;1.2;0.5;;;;;;;17.08;54.45117;943.9016;;;;
2020/10/08 10:21:57;;;;;;;1.3;0.5;;;;;;;17.3;52.57715;943.8641;;;;
2020/10/08 10:24:25;;;;;;;0.4;0.2;;;;;;;17.53;51.46777;943.869;;;;
2020/10/08 10:26:50;;;;;;;0.3;0.2;;;;;;;17.74;48.3584;943.8306;;;;
2020/10/08 10:29:15;;;;;;;0.4;0.3;;;;;;;18.2;49.97754;943.742;;;;
2020/10/08 10:31:40;;;;;;;0.4;0.2;;;;;;;18.59;49.90527;943.7629;;;;
2020/10/08 10:34:05;;;;;;;4;0.4;;;;;;;18.71;47.28906;943.7266;;;;
2020/10/08 10:36:31;;;;;;;0.1;0.1;;;;;;;18.42;47.08398;943.7261;;;;
2020/10/08 10:38:58;;;;;;;0.1;0.1;;;;;;;18.55;49.5752;943.6877;;;;
2020/10/08 10:41:23;;;;;;;0.9;0.4;;;;;;;18.71;48.5459;943.5829;;;;
2020/10/08 10:43:49;;;;;;;0.6;0.2;;;;;;;18.84;49.28223;943.5588;;;;
2020/10/08 10:46:14;;;;;;;1.5;0.5;;;;;;;18.68;45.71582;943.5414;;;;
2020/10/08 10:48:40;;;;;;;0.1;0.1;;;;;;;18.42;48.51465;943.5505;;;;
2020/10/08 10:51:05;;;;;;;0.1;0.1;;;;;;;18.4;49.90723;943.5908;;;;
2020/10/08 10:53:32;;;;;;;0.1;0;;;;;;;18.66;45.09766;943.4973;;;;
2020/10/08 10:55:57;;;;;;;0.7;0.3;;;;;;;19.06;49.90137;943.4881;;;;
2020/10/08 10:58:22;;;;;;;0.3;0.2;;;;;;;19.63;48.57715;943.4358;;;;
2020/10/08 11:00:47;;;;;;;0.6;0.2;;;;;;;19.89;46.22656;943.4113;;;;
2020/10/08 11:03:13;;;;;;;0.2;0.2;;;;;;;19.53;42.75;943.3812;;;;
2020/10/08 11:05:38;;;;;;;0.3;0.3;;;;;;;19.7;45.33203;943.3635;;;;
2020/10/08 11:08:03;;;;;;;1.3;0.1;;;;;;;19.84;44.50586;943.3128;;;;
2020/10/08 11:10:28;;;;;;;1.1;0.4;;;;;;;19.71;41.22852;943.3189;;;;
2020/10/08 11:12:53;;;;;;;0.3;0.1;;;;;;;19.37;45.81152;943.2776;;;;
2020/10/08 11:15:24;;;;;;;0.2;0;;;;;;;19.89;44.19727;943.1954;;;;
2020/10/08 11:17:50;;;;;;;0.3;0.3;;;;;;;19.62;40.26563;943.1136;;;;
2020/10/08 11:20:16;;;;;;;0.2;0.2;;;;;;;19.38;42.01367;943.0982;;;;
2020/10/08 11:22:41;;;;;;;0.1;0.1;;;;;;;19.54;42.56445;943.0073;;;;
2020/10/08 11:25:06;;;;;;;0.1;0.1;;;;;;;19.65;42.37793;943.0089;;;;
2020/10/08 11:27:33;;;;;;;0.1;0.1;;;;;;;20.07;42.68652;942.966;;;;
2020/10/08 11:29:58;;;;;;;1;0.1;;;;;;;20.41;43.0459;942.9727;;;;
2020/10/08 11:32:23;;;;;;;0.2;0.2;;;;;;;20.06;42.8252;942.8707;;;;
2020/10/08 11:34:50;;;;;;;0.7;0.2;;;;;;;20.24;44.69922;942.8586;;;;
2020/10/08 11:37:15;;;;;;;0.1;0.1;;;;;;;19.75;45.16309;942.8478;;;;
2020/10/08 11:39:40;;;;;;;0.1;0.1;;;;;;;20.22;41.64941;942.7714;;;;
2020/10/08 11:42:05;;;;;;;0.3;0.1;;;;;;;20.81;41.77539;942.7831;;;;
2020/10/08 11:44:30;;;;;;;0.4;0.1;;;;;;;20.98;40.80957;942.731;;;;
2020/10/08 11:46:55;;;;;;;1.1;0.1;;;;;;;21.31;42.06836;942.7408;;;;
2020/10/08 11:49:20;;;;;;;1.3;0.2;;;;;;;21.92;37.94336;942.7234;;;;
2020/10/08 11:51:45;;;;;;;0.3;0.2;;;;;;;21.75;39.82617;942.6492;;;;
2020/10/08 11:54:11;;;;;;;0.8;0.3;;;;;;;22.7;38.18652;942.6099;;;;
2020/10/08 11:56:36;;;;;;;0.5;0.3;;;;;;;24.09;34.64258;942.4672;;;;
2020/10/08 11:59:01;;;;;;;0.1;0.1;;;;;;;25.23;33.10254;942.4777;;;;
2020/10/08 12:01:26;;;;;;;0.1;0.1;;;;;;;26.36;31.28027;942.3979;;;;
2020/10/08 12:03:54;;;;;;;0.3;0.1;;;;;;;26.77;28.40723;942.4303;;;;
2020/10/08 12:06:19;;;;;;;0.2;0.2;;;;;;;27.4;28.49414;942.3694;;;;
2020/10/08 12:08:45;;;;;;;0.8;0.2;;;;;;;28.6;26.72656;942.4305;;;;
2020/10/08 12:11:11;;;;;;;0.1;0;;;;;;;29.19;25.85742;942.3777;;;;
2020/10/08 12:13:37;;;;;;;0.6;0.2;;;;;;;30.3;24.57129;942.3391;;;;
2020/10/08 12:16:03;;;;;;;0.2;0.1;;;;;;;30.31;23.55664;942.354;;;;
2020/10/08 12:18:32;;;;;;;0.1;0.1;;;;;;;30.21;24.61426;942.3094;;;;
2020/10/08 12:21:02;;;;;;;0;0;;;;;;;30.5;24.23633;942.2231;;;;
2020/10/08 12:23:27;;;;;;;0;0;;;;;;;30.91;24.2334;942.2142;;;;
2020/10/08 12:25:53;;;;;;;1.3;0;;;;;;;31.8;22.40039;942.213;;;;
2020/10/08 12:28:18;;;;;;;0.1;0.1;;;;;;;32.66;21.87891;942.2006;;;;
2020/10/08 12:30:45;;;;;;;0.4;0.1;;;;;;;32.92;20.89453;942.1708;;;;
2020/10/08 12:33:13;;;;;;;0.1;0.1;;;;;;;34.24;19.93164;942.1939;;;;
2020/10/08 12:35:38;;;;;;;0.6;0.1;;;;;;;35.35;18.39844;942.1085;;;;
2020/10/08 12:38:05;;;;;;;0.1;0.1;;;;;;;35.87;18.33496;942.0748;;;;
2020/10/08 12:40:31;;;;;;;0.7;0.2;;;;;;;35.75;18.01563;942.0637;;;;
2020/10/08 12:43:02;;;;;;;0.1;0;;;;;;;35.76;18.68066;942.048;;;;
2020/10/08 12:45:29;;;;;;;0.5;0.2;;;;;;;35.06;18.55566;941.9975;;;;
2020/10/08 12:47:57;;;;;;;0.1;0;;;;;;;35.62;17.69629;941.9805;;;;
2020/10/08 12:50:22;;;;;;;0.1;0.1;;;;;;;36.59;16.8623;941.9972;;;;
2020/10/08 12:52:50;;;;;;;0.1;0;;;;;;;36.72;17.41211;941.9937;;;;
2020/10/08 12:55:16;;;;;;;0.5;0.1;;;;;;;35.27;17.90039;941.9537;;;;
2020/10/08 12:57:42;;;;;;;0.6;0.2;;;;;;;33.23;19.92383;941.9709;;;;
2020/10/08 13:00:07;;;;;;;0.4;0.3;;;;;;;33.34;21.3584;941.9366;;;;
2020/10/08 13:02:32;;;;;;;0.4;0.3;;;;;;;33;20.77832;941.8953;;;;
2020/10/08 13:04:57;;;;;;;0.2;0.1;;;;;;;34.36;19.4668;941.8056;;;;
2020/10/08 13:07:22;;;;;;;1.9;0.9;;;;;;;34.28;18.77734;941.7938;;;;
2020/10/08 13:09:47;;;;;;;0.1;0.1;;;;;;;35.86;17.92383;941.7255;;;;
2020/10/08 13:12:12;;;;;;;0.2;0.1;;;;;;;37.19;16.61816;941.752;;;;
2020/10/08 13:14:37;;;;;;;0.1;0;;;;;;;37.86;16.41113;941.7961;;;;
2020/10/08 13:17:03;;;;;;;0;0;;;;;;;37.87;16.05957;941.7619;;;;
2020/10/08 13:19:28;;;;;;;0;0;;;;;;;38.04;15.75;941.7341;;;;
2020/10/08 13:21:54;;;;;;;0.2;0.1;;;;;;;37.12;16.05762;941.6914;;;;
2020/10/08 13:24:19;;;;;;;0.8;0.1;;;;;;;37.37;16.75781;941.6381;;;;
2020/10/08 13:26:45;;;;;;;0.2;0.1;;;;;;;37.95;15.41895;941.6052;;;;
2020/10/08 13:29:10;;;;;;;0.1;0.1;;;;;;;38.24;15.22266;941.5902;;;;
2020/10/08 13:31:38;;;;;;;0.2;0.2;;;;;;;38.5;15.47363;941.5524;;;;
2020/10/08 13:34:03;;;;;;;0.2;0.1;;;;;;;37.5;16.79883;941.5786;;;;
2020/10/08 13:36:28;;;;;;;0.3;0.2;;;;;;;37.7;17.24316;941.5962;;;;
2020/10/08 13:38:53;;;;;;;0.1;0.1;;;;;;;37.74;16.92969;941.5666;;;;
2020/10/08 13:41:19;;;;;;;0.1;0.1;;;;;;;35.88;18.69824;941.444;;;;
2020/10/08 13:43:44;;;;;;;1.3;0.5;;;;;;;34.46;19.75977;941.5002;;;;
2020/10/08 13:46:14;;;;;;;0.5;0.2;;;;;;;33.62;20.22949;941.4977;;;;
2020/10/08 13:48:39;;;;;;;0.3;0.2;;;;;;;33.26;20.83789;941.4294;;;;
2020/10/08 13:51:05;;;;;;;0.5;0.1;;;;;;;33.1;21.37109;941.4088;;;;
2020/10/08 13:53:30;;;;;;;0.2;0.2;;;;;;;33.38;21.13184;941.383;;;;
2020/10/08 13:55:55;;;;;;;10;0.2;;;;;;;33.23;21.18555;941.4392;;;;
2020/10/08 13:58:21;;;;;;;0.3;0.1;;;;;;;33.22;21.00488;941.4113;;;;
2020/10/08 14:00:46;;;;;;;0.1;0.1;;;;;;;33.26;21.35449;941.3561;;;;
2020/10/08 14:03:10;;;;;;;0.1;0.1;;;;;;;34.1;21.38184;941.4095;;;;
2020/10/08 14:05:35;;;;;;;1.3;0.4;;;;;;;34.74;20.80957;941.4447;;;;
2020/10/08 14:08:11;;;;;;;0.3;0.2;;;;;;;35.27;20.19336;941.4661;;;;
2020/10/08 14:10:41;;;;;;;1.4;0.4;;;;;;;35.31;20.30469;941.4865;;;;
2020/10/08 14:13:03;;;;;;;0.1;0.1;;;;;;;35.46;19.76758;941.4539;;;;
2020/10/08 14:15:32;;;;;;;0.3;0.2;;;;;;;34.29;21.04199;941.4163;;;;
2020/10/08 14:17:54;;;;;;;0.4;0.3;;;;;;;34.66;20.86621;941.4344;;;;
2020/10/08 14:20:19;;;;;;;0.3;0.1;;;;;;;34.01;21.4502;941.4788;;;;
2020/10/08 14:22:44;;;;;;;0.7;0.4;;;;;;;33.39;22.81543;941.4175;;;;
2020/10/08 14:25:11;;;;;;;0.3;0.2;;;;;;;33.56;22.69141;941.4487;;;;
2020/10/08 14:27:37;;;;;;;0.2;0.2;;;;;;;33.74;22.14746;941.3859;;;;
2020/10/08 14:30:03;;;;;;;0.1;0.1;;;;;;;33.24;22.68848;941.3942;;;;
2020/10/08 14:32:30;;;;;;;0.5;0.2;;;;;;;32.9;22.64648;941.3867;;;;
2020/10/08 14:34:55;;;;;;;0.3;0.2;;;;;;;32.66;22.99512;941.354;;;;
2020/10/08 14:37:20;;;;;;;0.4;0.3;;;;;;;31.9;24.28711;941.3477;;;;
2020/10/08 14:39:46;;;;;;;0.2;0.1;;;;;;;32.08;23.96094;941.3349;;;;
2020/10/08 14:42:10;;;;;;;0.1;0.1;;;;;;;31.69;24.21582;941.3683;;;;
2020/10/08 14:44:36;;;;;;;0.4;0.1;;;;;;;31.63;24.42773;941.3965;;;;
2020/10/08 14:47:03;;;;;;;0.1;0.1;;;;;;;31.69;24.6709;941.3647;;;;
2020/10/08 14:49:28;;;;;;;0.3;0.2;;;;;;;31.41;25.7207;941.3635;;;;
2020/10/08 14:51:55;;;;;;;0.7;0.3;;;;;;;30.98;26.20996;941.3557;;;;
2020/10/08 14:54:18;;;;;;;0.3;0.3;;;;;;;30.5;27.17383;941.3711;;;;
2020/10/08 14:56:43;;;;;;;2;0.8;;;;;;;30.16;27.0459;941.4005;;;;
2020/10/08 14:59:16;;;;;;;1.5;0.5;;;;;;;30.08;27.54297;941.2896;;;;
2020/10/08 15:01:39;;;;;;;0.4;0.2;;;;;;;29.6;28.02637;941.3456;;;;
2020/10/08 15:04:05;;;;;;;0.2;0.2;;;;;;;27.96;30.50195;941.3146;;;;
2020/10/08 15:06:29;;;;;;;0.3;0.2;;;;;;;28.33;29.71875;941.3092;;;;
2020/10/08 15:08:55;;;;;;;0.3;0.2;;;;;;;28.01;29.61426;941.2784;;;;
2020/10/08 15:11:30;;;;;;;0.2;0.2;;;;;;;27.27;30.4541;941.2921;;;;
2020/10/08 15:13:47;;;;;;;0.4;0.3;;;;;;;26.08;32.65723;941.3363;;;;
2020/10/08 15:16:11;;;;;;;2.8;0.9;;;;;;;25.5;33.91406;941.3019;;;;
2020/10/08 15:18:36;;;;;;;0.4;0.2;;;;;;;24.71;34.92773;941.3644;;;;
2020/10/08 15:21:05;;;;;;;0.7;0.4;;;;;;;24.02;36.21484;941.2946;;;;
2020/10/08 15:23:32;;;;;;;0.2;0.2;;;;;;;22.85;38.83398;941.2739;;;;
2020/10/08 15:25:57;;;;;;;1;0.4;;;;;;;21.92;41.01367;941.2994;;;;
2020/10/08 15:28:25;;;;;;;0.3;0.2;;;;;;;21.44;41.94043;941.2559;;;;
2020/10/08 15:30:49;;;;;;;0.6;0.5;;;;;;;20.98;43.3125;941.25;;;;
2020/10/08 15:33:17;;;;;;;0.4;0.4;;;;;;;20.61;44.83105;941.3331;;;;